Time;durP1;ratioP1;P1;durP2;ratioP2;P2;SDS_P1;SDS_P2;PMS_P1;PMS_P2;Temp;Humidity;BMP_temperature;BMP_pressure;BME280_temperature;BME280_humidity;BME280_pressure;Samples;Min_cycle;Max_cycle;Signal;HPM_P1;HPM_P2
2023/09/01 00:01:00;;;;;;;8.45;2.33;;;;;;;;;;5037725;28;20036;-74
2023/09/01 00:03:26;;;;;;;6.45;2.10;;;;;;;;;;5037334;28;20033;-74
2023/09/01 00:05:53;;;;;;;8.50;2.40;;;;;;;;;;5035757;28;20691;-74
2023/09/01 00:08:19;;;;;;;6.72;2.38;;;;;;;;;;5035046;28;20044;-74
2023/09/01 00:10:46;;;;;;;6.90;2.10;;;;;;;;;;5034240;28;20418;-74
2023/09/01 00:13:12;;;;;;;5.93;2.10;;;;;;;;;;5035858;28;20569;-74
2023/09/01 00:15:38;;;;;;;6.10;1.90;;;;;;;;;;5035967;28;20047;-74
2023/09/01 00:18:05;;;;;;;5.75;2.03;;;;;;;;;;5039271;28;20024;-74
2023/09/01 00:20:36;;;;;;;6.60;2.00;;;;;;;;;;5031388;28;20036;-74
2023/09/01 00:23:03;;;;;;;5.70;1.88;;;;;;;;;;5033624;28;20063;-74
2023/09/01 00:25:29;;;;;;;6.90;2.03;;;;;;;;;;5032383;28;20105;-74
2023/09/01 00:27:55;;;;;;;5.90;1.98;;;;;;;;;;5038461;28;20020;-74
2023/09/01 00:30:22;;;;;;;5.82;1.77;;;;;;;;;;5041048;28;20394;-74
2023/09/01 00:32:48;;;;;;;6.68;2.00;;;;;;;;;;5041361;28;20538;-74
2023/09/01 00:35:14;;;;;;;8.25;2.20;;;;;;;;;;5039271;28;20033;-74
2023/09/01 00:37:40;;;;;;;8.65;2.38;;;;;;;;;;5032930;28;20765;-74
2023/09/01 00:40:07;;;;;;;6.18;1.85;;;;;;;;;;5034327;28;20345;-74
2023/09/01 00:42:33;;;;;;;6.80;1.98;;;;;;;;;;5031541;28;20593;-73
2023/09/01 00:44:59;;;;;;;7.68;2.33;;;;;;;;;;5039486;28;20060;-73
2023/09/01 00:47:25;;;;;;;7.32;1.92;;;;;;;;;;5036791;28;20408;-74
2023/09/01 00:49:51;;;;;;;6.68;2.10;;;;;;;;;;5038681;28;20036;-74
2023/09/01 00:52:17;;;;;;;4.78;1.60;;;;;;;;;;5037148;28;20997;-74
2023/09/01 00:54:44;;;;;;;6.00;1.70;;;;;;;;;;5035029;28;20553;-73
2023/09/01 00:57:10;;;;;;;5.55;1.85;;;;;;;;;;5034821;28;20072;-74
2023/09/01 00:59:37;;;;;;;5.18;1.73;;;;;;;;;;5037616;28;20522;-73
2023/09/01 01:02:04;;;;;;;5.95;1.90;;;;;;;;;;5037129;28;20546;-74
2023/09/01 01:04:31;;;;;;;7.78;2.00;;;;;;;;;;5034698;28;20251;-74
2023/09/01 01:07:13;;;;;;;6.80;1.90;;;;;;;;;;5034429;28;20028;-74
2023/09/01 01:09:58;;;;;;;5.93;1.63;;;;;;;;;;5034842;28;20419;-73
2023/09/01 01:12:43;;;;;;;6.33;1.90;;;;;;;;;;5037723;28;20335;-73
2023/09/01 01:15:11;;;;;;;5.70;1.58;;;;;;;;;;5035484;28;20320;-73
2023/09/01 01:17:42;;;;;;;6.72;1.70;;;;;;;;;;5033792;28;20366;-75
2023/09/01 01:20:14;;;;;;;7.22;2.10;;;;;;;;;;5035686;28;20574;-75
2023/09/01 01:23:04;;;;;;;5.43;1.50;;;;;;;;;;5029883;28;20040;-75
2023/09/01 01:25:30;;;;;;;6.22;1.65;;;;;;;;;;5032724;28;20648;-74
2023/09/01 01:27:57;;;;;;;7.07;1.95;;;;;;;;;;5041155;28;20498;-74
2023/09/01 01:30:24;;;;;;;5.80;1.73;;;;;;;;;;5035156;28;20120;-72
2023/09/01 01:32:50;;;;;;;6.30;1.63;;;;;;;;;;5034374;28;20017;-72
2023/09/01 01:35:29;;;;;;;6.60;1.63;;;;;;;;;;5032251;28;20374;-73
2023/09/01 01:38:04;;;;;;;5.55;1.67;;;;;;;;;;5033448;28;20087;-73
2023/09/01 01:40:31;;;;;;;5.78;1.58;;;;;;;;;;5034420;28;20032;-75
2023/09/01 01:43:00;;;;;;;8.02;1.73;;;;;;;;;;5036906;28;20541;-73
2023/09/01 01:45:27;;;;;;;5.22;1.60;;;;;;;;;;5033679;28;20094;-72
2023/09/01 01:47:53;;;;;;;4.38;1.40;;;;;;;;;;5034409;28;20094;-72
2023/09/01 01:50:19;;;;;;;5.80;1.38;;;;;;;;;;5033854;28;20025;-73
2023/09/01 01:52:45;;;;;;;5.72;1.70;;;;;;;;;;5032824;28;20433;-72
2023/09/01 01:55:11;;;;;;;7.65;1.70;;;;;;;;;;5037382;28;20043;-72
2023/09/01 01:57:37;;;;;;;5.28;1.48;;;;;;;;;;5031350;28;20049;-72
2023/09/01 02:00:11;;;;;;;6.72;1.80;;;;;;;;;;5036027;28;20038;-72
2023/09/01 02:02:38;;;;;;;6.88;1.55;;;;;;;;;;5036740;28;20122;-73
2023/09/01 02:05:06;;;;;;;4.25;1.48;;;;;;;;;;5036053;28;20059;-73
2023/09/01 02:07:33;;;;;;;6.20;1.60;;;;;;;;;;5031845;28;20112;-74
2023/09/01 02:09:59;;;;;;;7.88;1.58;;;;;;;;;;5037839;28;20167;-73
2023/09/01 02:12:25;;;;;;;5.30;1.52;;;;;;;;;;5033998;28;20453;-73
2023/09/01 02:14:51;;;;;;;4.90;1.40;;;;;;;;;;5037190;28;20060;-73
2023/09/01 02:17:17;;;;;;;4.63;1.35;;;;;;;;;;5040092;28;20338;-73
2023/09/01 02:19:44;;;;;;;5.93;1.80;;;;;;;;;;5034090;28;20046;-73
2023/09/01 02:22:10;;;;;;;6.35;1.70;;;;;;;;;;5036012;28;20033;-73
2023/09/01 02:24:36;;;;;;;7.45;1.88;;;;;;;;;;5035373;28;20047;-73
2023/09/01 02:27:04;;;;;;;6.47;1.92;;;;;;;;;;5033811;28;20458;-73
2023/09/01 02:29:31;;;;;;;5.65;1.52;;;;;;;;;;5034522;28;20044;-75
2023/09/01 02:31:57;;;;;;;6.63;1.67;;;;;;;;;;5032125;28;20025;-73
2023/09/01 02:34:23;;;;;;;5.03;1.52;;;;;;;;;;5029044;28;20024;-73
2023/09/01 02:36:49;;;;;;;7.43;1.70;;;;;;;;;;5035812;28;20063;-73
2023/09/01 02:39:17;;;;;;;6.30;1.70;;;;;;;;;;5035334;28;20707;-73
2023/09/01 02:41:43;;;;;;;5.20;1.50;;;;;;;;;;5033472;28;20434;-73
2023/09/01 02:44:09;;;;;;;6.65;1.63;;;;;;;;;;5030479;28;20286;-73
2023/09/01 02:46:35;;;;;;;6.05;1.77;;;;;;;;;;5036503;28;20275;-73
2023/09/01 02:49:01;;;;;;;5.35;1.40;;;;;;;;;;5036902;28;20379;-73
2023/09/01 02:51:27;;;;;;;4.97;1.60;;;;;;;;;;5031426;28;20123;-75
2023/09/01 02:53:54;;;;;;;5.88;1.85;;;;;;;;;;5037944;28;20495;-73
2023/09/01 02:56:20;;;;;;;7.22;1.70;;;;;;;;;;5036854;28;20033;-72
2023/09/01 02:58:46;;;;;;;6.72;1.67;;;;;;;;;;5033971;28;20132;-73
2023/09/01 03:01:13;;;;;;;6.28;1.70;;;;;;;;;;5032571;28;20460;-73
2023/09/01 03:03:40;;;;;;;6.65;1.98;;;;;;;;;;5031707;28;20061;-73
2023/09/01 03:06:08;;;;;;;6.30;1.58;;;;;;;;;;5033993;28;20089;-73
2023/09/01 03:08:37;;;;;;;4.57;1.35;;;;;;;;;;5033672;28;20031;-73
2023/09/01 03:11:03;;;;;;;5.10;1.73;;;;;;;;;;5036489;28;20025;-73
2023/09/01 03:13:30;;;;;;;6.13;1.75;;;;;;;;;;5034128;28;20028;-72
2023/09/01 03:15:56;;;;;;;5.60;1.65;;;;;;;;;;5041241;28;20036;-72
2023/09/01 03:18:23;;;;;;;3.70;1.20;;;;;;;;;;5037040;28;20101;-72
2023/09/01 03:20:53;;;;;;;5.38;1.50;;;;;;;;;;5034719;28;20060;-75
2023/09/01 03:23:20;;;;;;;7.15;1.63;;;;;;;;;;5035174;28;20136;-73
2023/09/01 03:25:54;;;;;;;6.60;1.77;;;;;;;;;;5044218;28;20286;-73
2023/09/01 03:28:20;;;;;;;7.25;1.85;;;;;;;;;;5036317;28;20036;-72
2023/09/01 03:30:47;;;;;;;6.18;1.48;;;;;;;;;;5039405;28;20037;-73
2023/09/01 03:33:13;;;;;;;4.82;1.30;;;;;;;;;;5042162;28;20490;-72
2023/09/01 03:35:39;;;;;;;7.40;1.50;;;;;;;;;;5035469;28;20025;-73
2023/09/01 03:38:05;;;;;;;5.82;1.48;;;;;;;;;;5037382;28;20024;-73
2023/09/01 03:40:32;;;;;;;6.35;1.50;;;;;;;;;;5032631;28;20021;-73
2023/09/01 03:42:58;;;;;;;7.68;1.92;;;;;;;;;;5039326;28;20048;-73
2023/09/01 03:45:24;;;;;;;4.68;1.25;;;;;;;;;;5038446;28;20024;-73
2023/09/01 03:47:50;;;;;;;7.13;1.58;;;;;;;;;;5041511;28;20591;-73
2023/09/01 03:50:16;;;;;;;6.28;1.50;;;;;;;;;;5039379;28;20033;-73
2023/09/01 03:52:43;;;;;;;7.72;1.48;;;;;;;;;;5035488;28;20111;-75
2023/09/01 03:55:09;;;;;;;5.55;1.50;;;;;;;;;;5038208;28;20032;-74
2023/09/01 03:57:35;;;;;;;6.72;1.80;;;;;;;;;;5033649;28;20043;-74
2023/09/01 04:00:05;;;;;;;6.07;1.58;;;;;;;;;;5035647;28;20052;-72
2023/09/01 04:02:31;;;;;;;6.03;1.75;;;;;;;;;;5038259;28;20044;-72
2023/09/01 04:04:57;;;;;;;4.88;1.70;;;;;;;;;;5042207;28;20059;-72
2023/09/01 04:07:23;;;;;;;5.93;1.58;;;;;;;;;;5034244;28;20773;-74
2023/09/01 04:09:50;;;;;;;7.22;1.80;;;;;;;;;;5039567;28;20025;-74
2023/09/01 04:12:16;;;;;;;7.05;1.65;;;;;;;;;;5036866;28;20423;-75
2023/09/01 04:14:42;;;;;;;6.80;1.73;;;;;;;;;;5034255;28;20029;-74
2023/09/01 04:17:08;;;;;;;6.40;1.95;;;;;;;;;;5040838;28;20051;-75
2023/09/01 04:19:34;;;;;;;7.00;1.90;;;;;;;;;;5039811;28;20605;-74
2023/09/01 04:22:00;;;;;;;5.93;1.58;;;;;;;;;;5033177;28;20020;-74
2023/09/01 04:24:26;;;;;;;6.43;1.50;;;;;;;;;;5035330;28;20039;-74
2023/09/01 04:26:53;;;;;;;5.85;1.65;;;;;;;;;;5036114;28;20170;-72
2023/09/01 04:29:19;;;;;;;5.45;1.65;;;;;;;;;;5038664;28;20540;-72
2023/09/01 04:31:45;;;;;;;7.85;1.80;;;;;;;;;;5036380;28;20498;-73
2023/09/01 04:34:13;;;;;;;6.95;1.88;;;;;;;;;;5042973;28;20120;-73
2023/09/01 04:36:39;;;;;;;6.47;1.75;;;;;;;;;;5034047;28;20039;-73
2023/09/01 04:39:07;;;;;;;6.88;1.90;;;;;;;;;;5031935;28;20037;-73
2023/09/01 04:41:33;;;;;;;4.97;1.60;;;;;;;;;;5032423;28;20687;-73
2023/09/01 04:43:59;;;;;;;6.55;2.03;;;;;;;;;;5036556;28;20363;-73
2023/09/01 04:46:25;;;;;;;8.30;1.70;;;;;;;;;;5031925;28;20403;-73
2023/09/01 04:48:52;;;;;;;6.90;1.70;;;;;;;;;;5036947;28;20572;-73
2023/09/01 04:51:18;;;;;;;6.47;1.90;;;;;;;;;;5034888;28;20201;-74
2023/09/01 04:53:44;;;;;;;7.57;2.00;;;;;;;;;;5034384;28;20589;-73
2023/09/01 04:56:10;;;;;;;6.93;1.83;;;;;;;;;;5037434;28;20136;-73
2023/09/01 04:58:36;;;;;;;7.28;1.90;;;;;;;;;;5031504;28;20033;-73
2023/09/01 05:01:02;;;;;;;7.43;1.90;;;;;;;;;;5041288;28;20091;-73
2023/09/01 05:03:28;;;;;;;7.50;1.80;;;;;;;;;;5044288;28;20418;-72
2023/09/01 05:05:56;;;;;;;6.32;1.90;;;;;;;;;;5046087;28;20033;-73
2023/09/01 05:08:22;;;;;;;9.05;2.35;;;;;;;;;;5040034;28;20032;-72
2023/09/01 05:10:48;;;;;;;8.20;1.90;;;;;;;;;;5040026;28;20037;-73
2023/09/01 05:13:14;;;;;;;7.43;1.88;;;;;;;;;;5033606;28;20399;-74
2023/09/01 05:15:41;;;;;;;7.03;1.88;;;;;;;;;;5031895;28;20056;-73
2023/09/01 05:18:07;;;;;;;8.70;2.15;;;;;;;;;;5041972;28;20463;-72
2023/09/01 05:20:33;;;;;;;5.78;1.75;;;;;;;;;;5036465;28;20025;-73
2023/09/01 05:22:59;;;;;;;7.43;2.00;;;;;;;;;;5031653;28;20438;-72
2023/09/01 05:25:25;;;;;;;8.38;1.90;;;;;;;;;;5037296;28;20447;-73
2023/09/01 05:27:51;;;;;;;11.27;2.20;;;;;;;;;;5035716;28;20143;-72
2023/09/01 05:30:17;;;;;;;6.47;1.90;;;;;;;;;;5038358;28;20659;-73
2023/09/01 05:32:43;;;;;;;7.80;1.85;;;;;;;;;;5036073;28;20037;-73
2023/09/01 05:35:10;;;;;;;8.25;1.95;;;;;;;;;;5033500;28;21771;-73
2023/09/01 05:37:36;;;;;;;6.55;1.98;;;;;;;;;;5039888;28;20442;-72
2023/09/01 05:40:03;;;;;;;8.25;2.03;;;;;;;;;;5039141;28;20032;-73
2023/09/01 05:42:29;;;;;;;8.55;1.90;;;;;;;;;;5032385;28;20784;-72
2023/09/01 05:44:55;;;;;;;8.25;2.08;;;;;;;;;;5034944;28;20076;-73
2023/09/01 05:47:21;;;;;;;8.45;1.92;;;;;;;;;;5036553;28;20338;-72
2023/09/01 05:49:48;;;;;;;8.35;2.10;;;;;;;;;;5042109;28;20115;-72
2023/09/01 05:52:14;;;;;;;6.05;2.08;;;;;;;;;;5036642;28;20035;-72
2023/09/01 05:54:40;;;;;;;6.60;2.00;;;;;;;;;;5036084;28;20390;-72
2023/09/01 05:57:06;;;;;;;7.20;2.33;;;;;;;;;;5036974;28;20032;-72
2023/09/01 05:59:32;;;;;;;7.47;2.00;;;;;;;;;;5034049;28;20017;-73
2023/09/01 06:01:58;;;;;;;7.32;2.38;;;;;;;;;;5037827;28;20029;-72
2023/09/01 06:04:25;;;;;;;8.82;2.78;;;;;;;;;;5034515;28;20766;-72
2023/09/01 06:06:51;;;;;;;10.65;2.72;;;;;;;;;;5037576;28;20040;-73
2023/09/01 06:09:17;;;;;;;6.88;2.35;;;;;;;;;;5035066;28;20287;-72
2023/09/01 06:11:43;;;;;;;8.32;2.55;;;;;;;;;;5038992;28;20409;-72
2023/09/01 06:14:10;;;;;;;9.05;2.83;;;;;;;;;;5041118;28;20481;-73
2023/09/01 06:16:36;;;;;;;11.00;3.30;;;;;;;;;;5033460;28;20058;-72
2023/09/01 06:19:03;;;;;;;10.75;3.60;;;;;;;;;;5038983;28;20021;-74
2023/09/01 06:21:30;;;;;;;10.57;3.38;;;;;;;;;;5036469;28;20035;-72
2023/09/01 06:23:57;;;;;;;13.48;3.65;;;;;;;;;;5038768;28;20350;-72
2023/09/01 06:26:23;;;;;;;11.82;3.70;;;;;;;;;;5036165;28;20024;-72
2023/09/01 06:28:49;;;;;;;11.40;4.25;;;;;;;;;;5041210;28;20028;-72
2023/09/01 06:31:16;;;;;;;12.48;4.25;;;;;;;;;;5035430;28;20029;-72
2023/09/01 06:33:43;;;;;;;10.68;4.07;;;;;;;;;;5040882;28;20025;-72
2023/09/01 06:36:13;;;;;;;11.88;4.28;;;;;;;;;;5045363;28;20391;-72
2023/09/01 06:38:40;;;;;;;13.55;3.88;;;;;;;;;;5038387;28;20297;-72
2023/09/01 06:41:06;;;;;;;15.80;4.68;;;;;;;;;;5045738;28;20063;-72
2023/09/01 06:43:32;;;;;;;14.98;4.70;;;;;;;;;;5041532;28;20620;-72
2023/09/01 06:45:59;;;;;;;11.38;4.70;;;;;;;;;;5045642;28;20471;-72
2023/09/01 06:48:26;;;;;;;14.40;5.18;;;;;;;;;;5048908;28;20084;-72
2023/09/01 06:50:52;;;;;;;13.43;5.45;;;;;;;;;;5051583;28;20107;-73
2023/09/01 06:53:18;;;;;;;14.57;5.88;;;;;;;;;;5045715;28;20032;-73
2023/09/01 06:55:47;;;;;;;15.63;5.50;;;;;;;;;;5048380;28;20037;-73
2023/09/01 06:58:14;;;;;;;14.00;5.97;;;;;;;;;;5045155;28;20049;-72
2023/09/01 07:00:40;;;;;;;14.35;5.97;;;;;;;;;;5043360;28;20032;-72
2023/09/01 07:03:06;;;;;;;13.52;6.10;;;;;;;;;;5048419;28;20024;-73
2023/09/01 07:05:33;;;;;;;12.15;5.60;;;;;;;;;;5048139;28;20586;-73
2023/09/01 07:08:00;;;;;;;13.45;5.72;;;;;;;;;;5047486;28;20041;-73
2023/09/01 07:10:26;;;;;;;13.02;5.32;;;;;;;;;;5042832;28;20037;-72
2023/09/01 07:12:52;;;;;;;11.65;4.18;;;;;;;;;;5041955;28;20139;-73
2023/09/01 07:15:18;;;;;;;12.82;4.10;;;;;;;;;;5043722;28;20033;-72
2023/09/01 07:17:45;;;;;;;12.93;3.90;;;;;;;;;;5038898;28;20432;-73
2023/09/01 07:20:11;;;;;;;13.13;3.38;;;;;;;;;;5050148;28;20041;-72
2023/09/01 07:22:37;;;;;;;9.60;3.13;;;;;;;;;;5040904;28;20427;-72
2023/09/01 07:25:04;;;;;;;8.65;2.65;;;;;;;;;;5045668;28;20419;-72
2023/09/01 07:27:30;;;;;;;13.32;3.00;;;;;;;;;;5034872;28;20029;-73
2023/09/01 07:29:56;;;;;;;11.65;2.33;;;;;;;;;;5040679;28;20016;-73
2023/09/01 07:32:23;;;;;;;7.75;2.40;;;;;;;;;;5041153;28;20290;-72
2023/09/01 07:34:49;;;;;;;9.98;2.50;;;;;;;;;;5044792;28;20033;-72
2023/09/01 07:37:15;;;;;;;7.75;2.10;;;;;;;;;;5041251;28;20110;-74
2023/09/01 07:39:41;;;;;;;7.38;2.08;;;;;;;;;;5043015;28;21885;-74
2023/09/01 07:42:07;;;;;;;9.02;2.03;;;;;;;;;;5039628;28;20021;-73
2023/09/01 07:44:34;;;;;;;8.18;2.10;;;;;;;;;;5039210;28;20260;-73
2023/09/01 07:47:00;;;;;;;10.30;2.00;;;;;;;;;;5038344;28;20056;-74
2023/09/01 07:49:26;;;;;;;6.57;1.80;;;;;;;;;;5037836;28;20144;-73
2023/09/01 07:51:52;;;;;;;7.15;2.15;;;;;;;;;;5040570;28;20024;-74
2023/09/01 07:54:18;;;;;;;9.25;2.05;;;;;;;;;;5038922;28;20461;-73
2023/09/01 07:56:44;;;;;;;9.00;2.33;;;;;;;;;;5036211;28;20068;-73
2023/09/01 07:59:11;;;;;;;8.73;2.20;;;;;;;;;;5040045;28;20036;-73
2023/09/01 08:01:37;;;;;;;9.98;1.90;;;;;;;;;;5037523;28;20021;-74
2023/09/01 08:04:03;;;;;;;6.63;1.77;;;;;;;;;;5041612;28;20468;-74
2023/09/01 08:06:29;;;;;;;8.38;2.10;;;;;;;;;;5036355;28;20376;-74
2023/09/01 08:08:56;;;;;;;7.55;2.00;;;;;;;;;;5042468;28;20110;-73
2023/09/01 08:11:22;;;;;;;7.20;1.88;;;;;;;;;;5036064;28;20024;-73
2023/09/01 08:13:49;;;;;;;10.10;2.15;;;;;;;;;;5038434;28;20051;-74
2023/09/01 08:16:18;;;;;;;6.20;1.40;;;;;;;;;;5044918;28;20833;-74
2023/09/01 08:18:44;;;;;;;10.50;1.90;;;;;;;;;;5037426;28;20489;-74
2023/09/01 08:21:11;;;;;;;4.95;1.55;;;;;;;;;;5043524;28;20062;-74
2023/09/01 08:23:40;;;;;;;7.13;1.92;;;;;;;;;;5040393;28;20032;-74
2023/09/01 08:26:07;;;;;;;6.82;1.52;;;;;;;;;;5046940;28;20039;-74
2023/09/01 08:28:33;;;;;;;6.13;1.55;;;;;;;;;;5036888;28;20787;-74
2023/09/01 08:31:03;;;;;;;5.97;1.58;;;;;;;;;;5041881;28;20021;-74
2023/09/01 08:33:29;;;;;;;6.50;1.70;;;;;;;;;;5037908;28;20300;-74
2023/09/01 08:35:55;;;;;;;6.70;1.90;;;;;;;;;;5041519;28;20029;-74
2023/09/01 08:38:22;;;;;;;7.60;1.75;;;;;;;;;;5042625;28;20230;-74
2023/09/01 08:40:48;;;;;;;7.68;1.73;;;;;;;;;;5047868;28;20028;-74
2023/09/01 08:43:16;;;;;;;7.60;2.08;;;;;;;;;;5045889;28;20482;-74
2023/09/01 08:45:42;;;;;;;4.93;1.55;;;;;;;;;;5041969;28;20156;-73
2023/09/01 08:48:08;;;;;;;5.50;1.50;;;;;;;;;;5038308;28;20135;-74
2023/09/01 08:50:36;;;;;;;5.63;1.60;;;;;;;;;;5038926;28;20029;-74
2023/09/01 08:53:03;;;;;;;6.93;1.90;;;;;;;;;;5033464;28;20536;-74
2023/09/01 08:55:30;;;;;;;6.97;1.90;;;;;;;;;;5039167;28;20020;-74
2023/09/01 08:57:56;;;;;;;7.20;1.58;;;;;;;;;;5044440;28;20161;-73
2023/09/01 09:00:22;;;;;;;7.28;1.73;;;;;;;;;;5036744;28;20506;-73
2023/09/01 09:02:48;;;;;;;6.20;1.65;;;;;;;;;;5040265;28;20075;-73
2023/09/01 09:05:15;;;;;;;5.63;1.80;;;;;;;;;;5038306;28;20051;-72
2023/09/01 09:07:42;;;;;;;7.07;1.88;;;;;;;;;;5040259;28;22757;-72
2023/09/01 09:10:09;;;;;;;4.25;1.30;;;;;;;;;;5044020;28;20727;-72
2023/09/01 09:12:36;;;;;;;7.03;1.90;;;;;;;;;;5039724;28;20477;-74
2023/09/01 09:15:03;;;;;;;5.78;1.60;;;;;;;;;;5044813;28;20734;-72
2023/09/01 09:17:46;;;;;;;7.38;2.15;;;;;;;;;;5039879;28;20152;-75
2023/09/01 09:20:14;;;;;;;6.47;1.63;;;;;;;;;;5039978;28;20434;-73
2023/09/01 09:22:49;;;;;;;5.50;1.67;;;;;;;;;;5034801;28;20024;-73
2023/09/01 09:25:26;;;;;;;8.00;1.90;;;;;;;;;;5041837;28;20565;-73
2023/09/01 09:27:53;;;;;;;6.65;1.73;;;;;;;;;;5041381;28;20363;-73
2023/09/01 09:30:19;;;;;;;5.85;1.52;;;;;;;;;;5039029;28;20029;-73
2023/09/01 09:32:45;;;;;;;6.00;1.70;;;;;;;;;;5041265;28;20036;-73
2023/09/01 09:35:13;;;;;;;5.85;1.83;;;;;;;;;;5037680;28;20057;-73
2023/09/01 09:37:40;;;;;;;6.28;1.98;;;;;;;;;;5039660;28;20052;-73
2023/09/01 09:40:16;;;;;;;7.50;2.00;;;;;;;;;;5042990;28;20033;-73
2023/09/01 09:42:44;;;;;;;8.63;1.95;;;;;;;;;;5039929;28;20037;-73
2023/09/01 09:45:31;;;;;;;7.63;1.90;;;;;;;;;;5043911;28;20041;-73
2023/09/01 09:47:58;;;;;;;7.18;2.15;;;;;;;;;;5040848;28;20032;-73
2023/09/01 09:50:27;;;;;;;5.15;1.70;;;;;;;;;;5038099;28;20055;-72
2023/09/01 09:53:19;;;;;;;6.40;1.92;;;;;;;;;;5041840;28;20414;-73
2023/09/01 09:55:46;;;;;;;7.45;1.75;;;;;;;;;;5043942;28;20056;-73
2023/09/01 09:58:12;;;;;;;5.50;1.65;;;;;;;;;;5041286;28;20028;-75
2023/09/01 10:00:41;;;;;;;4.85;1.38;;;;;;;;;;5034294;28;20034;-73
2023/09/01 10:03:08;;;;;;;5.82;1.50;;;;;;;;;;5039264;28;20306;-73
2023/09/01 10:05:34;;;;;;;6.50;1.70;;;;;;;;;;5035797;28;20032;-73
2023/09/01 10:08:02;;;;;;;6.93;1.83;;;;;;;;;;5040443;28;20133;-73
2023/09/01 10:10:28;;;;;;;7.82;1.85;;;;;;;;;;5033684;28;20099;-73
2023/09/01 10:12:55;;;;;;;7.00;1.55;;;;;;;;;;5037836;28;20028;-74
2023/09/01 10:15:21;;;;;;;8.35;1.90;;;;;;;;;;5041284;28;20456;-73
2023/09/01 10:17:48;;;;;;;5.78;1.75;;;;;;;;;;5041637;28;20036;-73
2023/09/01 10:20:14;;;;;;;6.38;1.80;;;;;;;;;;5035997;28;20048;-73
2023/09/01 10:22:41;;;;;;;7.03;1.70;;;;;;;;;;5033020;28;20032;-73
2023/09/01 10:25:17;;;;;;;8.07;1.80;;;;;;;;;;5047630;28;20036;-73
2023/09/01 10:28:01;;;;;;;6.72;1.73;;;;;;;;;;5034923;28;20549;-73
2023/09/01 10:30:28;;;;;;;6.30;1.60;;;;;;;;;;5035896;28;20094;-74
2023/09/01 10:33:07;;;;;;;5.75;1.55;;;;;;;;;;5041963;28;20121;-73
2023/09/01 10:35:38;;;;;;;5.35;1.55;;;;;;;;;;5035102;28;20467;-73
2023/09/01 10:38:19;;;;;;;6.03;1.67;;;;;;;;;;5040058;28;21107;-73
2023/09/01 10:40:45;;;;;;;5.85;1.58;;;;;;;;;;5039931;28;20040;-73
2023/09/01 10:43:11;;;;;;;6.32;1.73;;;;;;;;;;5034497;28;20096;-73
2023/09/01 10:45:39;;;;;;;7.53;1.50;;;;;;;;;;5036736;28;20139;-73
2023/09/01 10:48:11;;;;;;;5.25;1.50;;;;;;;;;;5042841;28;20028;-73
2023/09/01 10:50:37;;;;;;;7.15;1.80;;;;;;;;;;5034974;28;20420;-73
2023/09/01 10:53:22;;;;;;;8.23;1.70;;;;;;;;;;5034198;28;20028;-73
2023/09/01 10:55:48;;;;;;;;;;;;;;;;;;5046683;28;20524;-73
2023/09/01 10:58:15;;;;;;;5.85;1.50;;;;;;;;;;5039928;28;20005;-74
2023/09/01 11:00:42;;;;;;;6.10;1.65;;;;;;;;;;5037450;28;21999;-76
2023/09/01 11:03:29;;;;;;;8.05;2.00;;;;;;;;;;5040015;28;20045;-75
2023/09/01 11:05:56;;;;;;;5.53;1.73;;;;;;;;;;5034047;28;20082;-75
2023/09/01 11:08:24;;;;;;;7.80;1.90;;;;;;;;;;5032802;28;20064;-75
2023/09/01 11:10:51;;;;;;;5.60;1.70;;;;;;;;;;5041836;28;20085;-75
2023/09/01 11:13:18;;;;;;;5.07;1.55;;;;;;;;;;5038628;28;20029;-75
2023/09/01 11:15:45;;;;;;;4.68;1.35;;;;;;;;;;5035182;28;20076;-75
2023/09/01 11:18:21;;;;;;;5.60;1.50;;;;;;;;;;5037556;28;20396;-75
2023/09/01 11:20:48;;;;;;;4.72;1.40;;;;;;;;;;5040218;28;20033;-73
2023/09/01 11:23:19;;;;;;;3.90;1.30;;;;;;;;;;5038043;28;20106;-73
2023/09/01 11:25:45;;;;;;;4.85;1.40;;;;;;;;;;5036567;28;20042;-75
2023/09/01 11:28:14;;;;;;;6.50;1.73;;;;;;;;;;5034505;28;20644;-75
2023/09/01 11:31:03;;;;;;;5.57;1.50;;;;;;;;;;5034696;28;20028;-75
2023/09/01 11:33:36;;;;;;;4.35;1.40;;;;;;;;;;5032999;28;20275;-75
2023/09/01 11:36:12;;;;;;;5.85;1.75;;;;;;;;;;5043012;28;20269;-76
2023/09/01 11:38:38;;;;;;;4.72;1.60;;;;;;;;;;5035581;28;20030;-75
2023/09/01 11:41:05;;;;;;;6.63;1.70;;;;;;;;;;5036740;28;20021;-75
2023/09/01 11:43:32;;;;;;;8.35;1.85;;;;;;;;;;5031958;28;20110;-75
2023/09/01 11:45:58;;;;;;;5.68;1.80;;;;;;;;;;5042247;28;20036;-76
2023/09/01 11:48:25;;;;;;;8.32;2.08;;;;;;;;;;5037872;28;20180;-75
2023/09/01 11:50:53;;;;;;;8.85;1.98;;;;;;;;;;5038799;28;20333;-74
2023/09/01 11:53:38;;;;;;;7.68;1.90;;;;;;;;;;5038485;28;20032;-75
2023/09/01 11:56:22;;;;;;;4.32;1.45;;;;;;;;;;5045296;28;20133;-74
2023/09/01 11:58:49;;;;;;;5.78;1.77;;;;;;;;;;5045609;28;20028;-74
2023/09/01 12:01:16;;;;;;;6.55;1.75;;;;;;;;;;5039590;28;20055;-75
2023/09/01 12:03:46;;;;;;;6.47;1.85;;;;;;;;;;5036685;28;20300;-74
2023/09/01 12:06:16;;;;;;;7.82;1.90;;;;;;;;;;5039395;28;20561;-75
2023/09/01 12:08:43;;;;;;;5.50;1.80;;;;;;;;;;5038814;28;20417;-74
2023/09/01 12:11:09;;;;;;;5.60;1.70;;;;;;;;;;5037180;28;20033;-74
2023/09/01 12:13:35;;;;;;;5.68;1.80;;;;;;;;;;5032282;28;20107;-74
2023/09/01 12:16:03;;;;;;;6.03;1.83;;;;;;;;;;5037168;28;20025;-75
2023/09/01 12:18:30;;;;;;;6.13;1.80;;;;;;;;;;5029240;28;20255;-74
2023/09/01 12:20:56;;;;;;;5.82;1.60;;;;;;;;;;5040144;28;20038;-74
2023/09/01 12:23:29;;;;;;;7.32;1.80;;;;;;;;;;5031017;28;20115;-74
2023/09/01 12:25:56;;;;;;;7.00;2.10;;;;;;;;;;5035008;28;20036;-74
2023/09/01 12:28:22;;;;;;;6.20;1.90;;;;;;;;;;5030327;28;20094;-73
2023/09/01 12:30:49;;;;;;;6.13;1.75;;;;;;;;;;5036780;28;20188;-74
2023/09/01 12:33:16;;;;;;;5.45;1.58;;;;;;;;;;5033843;28;20391;-74
2023/09/01 12:35:42;;;;;;;6.07;1.80;;;;;;;;;;5038431;28;20028;-74
2023/09/01 12:38:08;;;;;;;5.85;2.13;;;;;;;;;;5035423;28;20039;-74
2023/09/01 12:40:34;;;;;;;5.43;1.90;;;;;;;;;;5031478;28;20024;-74
2023/09/01 12:43:01;;;;;;;5.22;1.67;;;;;;;;;;5036979;28;20700;-74
2023/09/01 12:45:27;;;;;;;6.22;1.73;;;;;;;;;;5030416;28;20501;-74
2023/09/01 12:47:53;;;;;;;6.15;1.65;;;;;;;;;;5031418;28;20245;-74
2023/09/01 12:50:20;;;;;;;5.80;1.52;;;;;;;;;;5037360;28;20671;-75
2023/09/01 12:52:46;;;;;;;5.38;1.60;;;;;;;;;;5034455;28;20038;-73
2023/09/01 12:55:12;;;;;;;6.50;1.80;;;;;;;;;;5040121;28;20287;-74
2023/09/01 12:57:38;;;;;;;6.78;2.00;;;;;;;;;;5036020;28;20032;-74
2023/09/01 13:00:05;;;;;;;6.85;1.70;;;;;;;;;;5033187;28;20032;-74
2023/09/01 13:02:31;;;;;;;5.85;1.60;;;;;;;;;;5035815;28;20039;-74
2023/09/01 13:04:58;;;;;;;6.10;1.67;;;;;;;;;;5033083;28;20028;-74
2023/09/01 13:07:24;;;;;;;5.93;1.55;;;;;;;;;;5031622;28;20040;-74
2023/09/01 13:09:52;;;;;;;7.40;2.10;;;;;;;;;;5034246;28;20033;-74
2023/09/01 13:12:19;;;;;;;6.43;1.70;;;;;;;;;;5036586;28;20657;-74
2023/09/01 13:14:45;;;;;;;7.15;1.80;;;;;;;;;;5035221;28;20466;-73
2023/09/01 13:17:11;;;;;;;6.32;1.50;;;;;;;;;;5034569;28;20033;-74
2023/09/01 13:19:37;;;;;;;5.63;1.80;;;;;;;;;;5032662;28;20040;-75
2023/09/01 13:22:03;;;;;;;5.57;1.60;;;;;;;;;;5036726;28;20041;-75
2023/09/01 13:24:30;;;;;;;6.28;1.40;;;;;;;;;;5035417;28;20102;-74
2023/09/01 13:26:56;;;;;;;5.65;1.58;;;;;;;;;;5033928;28;20373;-76
2023/09/01 13:29:22;;;;;;;6.72;1.58;;;;;;;;;;5034697;28;20362;-74
2023/09/01 13:31:49;;;;;;;5.28;1.50;;;;;;;;;;5032950;28;20029;-75
2023/09/01 13:34:15;;;;;;;4.75;1.67;;;;;;;;;;5031140;28;20036;-75
2023/09/01 13:36:41;;;;;;;6.18;2.08;;;;;;;;;;5030278;28;20047;-74
2023/09/01 13:39:07;;;;;;;5.68;1.73;;;;;;;;;;5031899;28;20032;-75
2023/09/01 13:41:34;;;;;;;5.05;1.70;;;;;;;;;;5033566;28;20194;-75
2023/09/01 13:44:00;;;;;;;5.32;1.58;;;;;;;;;;5033844;28;20048;-74
2023/09/01 13:46:27;;;;;;;4.75;1.60;;;;;;;;;;5029120;28;20475;-74
2023/09/01 13:48:57;;;;;;;5.47;1.40;;;;;;;;;;5033152;28;20063;-74
2023/09/01 13:51:24;;;;;;;6.30;1.80;;;;;;;;;;5038146;28;20209;-75
2023/09/01 13:53:51;;;;;;;5.15;1.42;;;;;;;;;;5036887;28;20229;-74
2023/09/01 13:56:17;;;;;;;5.50;1.80;;;;;;;;;;5035947;28;20028;-74
2023/09/01 13:58:43;;;;;;;9.95;1.60;;;;;;;;;;5037833;28;20098;-74
2023/09/01 14:01:09;;;;;;;5.72;1.40;;;;;;;;;;5040017;28;20024;-73
2023/09/01 14:03:35;;;;;;;5.38;1.52;;;;;;;;;;5032687;28;20132;-74
2023/09/01 14:06:02;;;;;;;6.03;1.50;;;;;;;;;;5038817;28;20056;-74
2023/09/01 14:08:29;;;;;;;5.35;1.58;;;;;;;;;;5032018;28;20351;-74
2023/09/01 14:10:55;;;;;;;8.50;1.58;;;;;;;;;;5039740;28;20025;-74
2023/09/01 14:13:22;;;;;;;4.50;1.52;;;;;;;;;;5032769;28;20025;-73
2023/09/01 14:15:49;;;;;;;5.95;1.60;;;;;;;;;;5037887;28;20037;-75
2023/09/01 14:18:15;;;;;;;5.43;1.50;;;;;;;;;;5036835;28;20101;-75
2023/09/01 14:20:41;;;;;;;7.07;1.67;;;;;;;;;;5030299;28;25318;-75
2023/09/01 14:23:07;;;;;;;6.72;1.58;;;;;;;;;;5034801;28;20489;-75
2023/09/01 14:25:34;;;;;;;6.65;1.67;;;;;;;;;;5030817;28;20375;-75
2023/09/01 14:28:00;;;;;;;5.82;1.77;;;;;;;;;;5032949;28;20476;-75
2023/09/01 14:30:27;;;;;;;6.28;1.50;;;;;;;;;;5023632;28;20029;-74
2023/09/01 14:32:54;;;;;;;4.60;1.38;;;;;;;;;;5033669;28;20028;-74
2023/09/01 14:35:20;;;;;;;5.00;1.58;;;;;;;;;;5033837;28;20033;-74
2023/09/01 14:37:46;;;;;;;8.45;1.65;;;;;;;;;;5030196;28;20059;-75
2023/09/01 14:40:12;;;;;;;4.75;1.33;;;;;;;;;;5040144;28;20028;-74
2023/09/01 14:42:39;;;;;;;6.25;1.50;;;;;;;;;;5034235;28;20116;-75
2023/09/01 14:45:06;;;;;;;4.57;1.60;;;;;;;;;;5035628;28;20100;-74